createdAt,value
2023-11-23T00:03:37.422Z,3.80
2023-11-23T00:08:42.181Z,3.90
2023-11-23T00:13:43.922Z,3.90
2023-11-23T00:18:45.678Z,3.90
2023-11-23T00:23:47.420Z,3.90
2023-11-23T00:28:49.018Z,4.00
2023-11-23T00:33:50.709Z,4.00
2023-11-23T00:38:52.879Z,4.10
2023-11-23T00:43:55.100Z,4.10
2023-11-23T00:48:56.803Z,4.10
2023-11-23T00:53:58.533Z,4.20
2023-11-23T00:59:00.221Z,4.20
2023-11-23T01:04:01.884Z,4.20
2023-11-23T01:09:03.677Z,4.30
2023-11-23T01:14:05.494Z,4.40
2023-11-23T01:19:07.456Z,4.40
2023-11-23T01:24:09.644Z,4.50
2023-11-23T01:29:11.286Z,4.50
2023-11-23T01:34:13.076Z,4.60
2023-11-23T01:39:15.460Z,4.70
2023-11-23T01:44:17.125Z,4.80
2023-11-23T01:49:19.508Z,4.90
2023-11-23T01:54:21.247Z,5.00
2023-11-23T01:59:23.194Z,5.00
2023-11-23T02:04:24.877Z,5.10
2023-11-23T02:09:26.752Z,5.10
2023-11-23T02:14:28.659Z,5.20
2023-11-23T02:19:30.439Z,5.30
2023-11-23T02:24:32.101Z,5.40
2023-11-23T02:29:33.865Z,5.30
2023-11-23T02:34:40.619Z,5.30
2023-11-23T02:39:44.559Z,5.30
2023-11-23T02:44:46.245Z,5.40
2023-11-23T02:49:47.937Z,5.40
2023-11-23T02:54:49.604Z,5.40
2023-11-23T02:59:51.263Z,5.50
2023-11-23T03:04:55.182Z,5.50
2023-11-23T03:09:56.831Z,5.50
2023-11-23T03:14:58.475Z,5.50
2023-11-23T03:20:00.101Z,5.60
2023-11-23T03:25:01.727Z,5.60
2023-11-23T03:30:03.784Z,5.70
2023-11-23T03:35:05.520Z,5.70
2023-11-23T03:40:08.822Z,5.80
2023-11-23T03:45:10.534Z,5.90
2023-11-23T03:50:12.229Z,5.90
2023-11-23T03:55:14.244Z,5.90
2023-11-23T04:00:16.980Z,6.00
2023-11-23T04:05:18.846Z,6.00
2023-11-23T04:10:20.470Z,6.10
2023-11-23T04:15:22.170Z,6.10
2023-11-23T04:20:23.766Z,6.10
2023-11-23T04:25:25.919Z,6.20
2023-11-23T04:30:27.622Z,6.10
2023-11-23T04:35:29.305Z,6.20
2023-11-23T04:40:30.919Z,6.20
2023-11-23T04:45:32.659Z,6.30
2023-11-23T04:50:34.268Z,6.30
2023-11-23T04:55:36.354Z,6.30
2023-11-23T05:00:38.160Z,6.30
2023-11-23T05:05:39.800Z,6.30
2023-11-23T05:10:41.426Z,6.30
2023-11-23T05:15:43.060Z,6.40
2023-11-23T05:20:44.647Z,6.40
2023-11-23T05:25:46.226Z,6.40
2023-11-23T05:30:48.079Z,6.40
2023-11-23T05:35:49.761Z,6.40
2023-11-23T05:40:51.551Z,6.50
2023-11-23T05:46:08.997Z,6.50
2023-11-23T06:26:23.731Z,6.70
2023-11-23T06:31:25.388Z,6.70
2023-11-23T06:36:30.028Z,6.80
2023-11-23T06:41:33.669Z,6.70
2023-11-23T06:46:35.274Z,7.10
2023-11-23T06:51:36.981Z,6.90
2023-11-23T06:56:38.680Z,7.00
2023-11-23T07:01:40.473Z,7.10
2023-11-23T07:06:42.627Z,7.10
2023-11-23T07:11:45.763Z,7.00
2023-11-23T07:16:49.810Z,7.00
2023-11-23T07:22:05.605Z,7.00
2023-11-23T07:27:07.933Z,6.90
2023-11-23T07:32:10.472Z,7.00
2023-11-23T07:37:12.341Z,7.00
2023-11-23T07:42:14.126Z,7.00
2023-11-23T07:47:17.248Z,7.00
2023-11-23T07:52:19.091Z,7.20
2023-11-23T07:57:22.550Z,7.40
2023-11-23T08:02:36.462Z,7.40
2023-11-23T08:07:38.145Z,7.50
2023-11-23T08:12:40.455Z,7.60
2023-11-23T08:17:51.182Z,7.70
2023-11-23T08:23:00.490Z,7.70
2023-11-23T08:28:04.068Z,7.90
2023-11-23T08:33:06.957Z,8.00
2023-11-23T08:38:08.850Z,8.00
2023-11-23T08:43:13.340Z,8.10
2023-11-23T08:48:18.027Z,8.20
2023-11-23T08:53:20.049Z,8.20
2023-11-23T08:58:22.179Z,8.30
2023-11-23T09:03:23.961Z,8.40
2023-11-23T09:08:26.230Z,8.50
2023-11-23T09:13:28.329Z,8.70
2023-11-23T09:18:32.125Z,8.80
2023-11-23T09:23:34.013Z,8.90
2023-11-23T09:28:37.619Z,9.10
2023-11-23T09:34:02.101Z,9.20
2023-11-23T09:39:04.286Z,9.30
2023-11-23T09:44:06.044Z,9.50
2023-11-23T09:49:08.957Z,9.80
2023-11-23T09:54:12.388Z,10.20
2023-11-23T09:59:14.097Z,10.40
2023-11-23T10:04:15.913Z,10.50
2023-11-23T10:09:19.068Z,10.60
2023-11-23T10:14:21.136Z,10.70
2023-11-23T10:19:23.032Z,10.80
2023-11-23T10:24:25.207Z,10.80
2023-11-23T10:29:30.770Z,11.00
2023-11-23T10:34:33.324Z,11.00
2023-11-23T10:39:35.167Z,11.10
2023-11-23T10:44:36.950Z,11.20
2023-11-23T10:49:39.943Z,11.20
2023-11-23T10:54:41.700Z,11.20
2023-11-23T10:59:44.607Z,11.30
2023-11-23T11:04:46.476Z,11.30
2023-11-23T11:09:57.563Z,11.30
2023-11-23T11:15:03.891Z,11.30
2023-11-23T11:20:07.250Z,11.40
2023-11-23T11:25:11.932Z,11.40
2023-11-23T11:30:25.884Z,11.40
2023-11-23T11:35:33.944Z,11.50
2023-11-23T11:40:36.337Z,11.60
2023-11-23T11:45:43.953Z,11.70
2023-11-23T11:50:54.603Z,11.80
2023-11-23T11:55:57.903Z,11.80
2023-11-23T12:01:01.016Z,11.80
2023-11-23T12:06:04.968Z,11.80
2023-11-23T12:11:07.620Z,11.80
2023-11-23T12:16:11.343Z,11.90
2023-11-23T12:21:14.457Z,11.80
2023-11-23T12:26:16.367Z,11.80
2023-11-23T12:31:18.979Z,11.80
2023-11-23T12:36:20.903Z,11.80
2023-11-23T12:41:23.742Z,11.80
2023-11-23T12:46:27.591Z,11.70
2023-11-23T12:51:31.645Z,11.80
2023-11-23T12:56:35.294Z,11.80
2023-11-23T13:01:39.579Z,11.80
2023-11-23T13:06:41.599Z,11.70
2023-11-23T13:11:43.264Z,11.70
2023-11-23T13:16:46.021Z,11.70
2023-11-23T13:21:50.642Z,11.70
2023-11-23T13:26:53.540Z,11.70
2023-11-23T13:32:00.134Z,11.70
2023-11-23T13:37:01.898Z,11.60
2023-11-23T13:42:04.950Z,11.70
2023-11-23T13:47:08.180Z,11.70
2023-11-23T13:52:11.434Z,11.70
2023-11-23T13:57:14.066Z,11.70
2023-11-23T14:02:17.371Z,11.70
2023-11-23T14:07:19.135Z,11.70
2023-11-23T14:12:20.790Z,11.70
2023-11-23T14:17:23.515Z,11.70
2023-11-23T14:22:27.072Z,11.70
2023-11-23T14:27:30.068Z,11.70
2023-11-23T14:32:32.051Z,11.70
2023-11-23T14:37:33.724Z,11.70
2023-11-23T14:42:41.670Z,11.70
2023-11-23T14:47:49.749Z,11.70
2023-11-23T14:52:51.540Z,11.70
2023-11-23T14:57:53.292Z,11.70
2023-11-23T15:02:56.313Z,11.80
2023-11-23T15:07:57.964Z,11.80
2023-11-23T15:12:59.782Z,11.80
2023-11-23T15:18:15.930Z,11.70
2023-11-23T15:23:19.051Z,11.70
2023-11-23T15:28:22.766Z,11.80
2023-11-23T15:33:25.454Z,11.80
2023-11-23T15:38:28.460Z,11.80
2023-11-23T15:43:30.370Z,11.70
2023-11-23T15:48:37.187Z,11.80
2023-11-23T15:53:41.406Z,11.80
2023-11-23T15:58:45.248Z,11.80
2023-11-23T16:09:33.094Z,11.80
2023-11-23T16:14:35.465Z,11.80
2023-11-23T16:19:37.418Z,11.80
2023-11-23T16:24:39.823Z,11.70
2023-11-23T16:29:44.844Z,11.70
2023-11-23T16:34:46.595Z,11.80
2023-11-23T16:39:48.400Z,11.80
2023-11-23T16:44:50.256Z,11.70
2023-11-23T16:49:53.870Z,11.80
2023-11-23T16:54:56.014Z,11.80
2023-11-23T16:59:57.970Z,11.80
2023-11-23T17:05:01.465Z,11.80
2023-11-23T17:10:04.543Z,11.80
2023-11-23T17:15:08.237Z,11.90
2023-11-23T17:20:12.598Z,11.80
2023-11-23T17:25:14.449Z,11.80
2023-11-23T17:30:16.867Z,11.90
2023-11-23T17:35:19.903Z,11.90
2023-11-23T17:40:21.875Z,12.00
2023-11-23T17:45:24.145Z,12.00
2023-11-23T17:50:25.805Z,12.00
2023-11-23T17:55:29.677Z,12.00
2023-11-23T18:00:31.644Z,12.00
2023-11-23T18:05:34.733Z,12.00
2023-11-23T18:10:37.212Z,12.10
2023-11-23T18:15:39.931Z,12.10
2023-11-23T18:20:41.532Z,12.10
2023-11-23T18:25:45.697Z,12.00
2023-11-23T18:30:51.641Z,12.00
2023-11-23T18:35:53.236Z,12.00
2023-11-23T18:40:54.835Z,12.00
2023-11-23T18:45:57.125Z,12.00
2023-11-23T18:50:58.760Z,12.10
2023-11-23T18:56:00.424Z,12.00
2023-11-23T19:01:02.926Z,12.10
2023-11-23T19:06:05.264Z,12.00
2023-11-23T19:11:07.313Z,11.90
2023-11-23T19:16:12.641Z,11.90
2023-11-23T19:21:15.901Z,12.00
2023-11-23T19:26:17.776Z,11.90
2023-11-23T19:31:20.632Z,11.80
2023-11-23T19:36:22.647Z,11.70
2023-11-23T19:41:25.478Z,11.50
2023-11-23T19:46:29.066Z,11.40
2023-11-23T19:51:30.806Z,11.30
2023-11-23T19:56:32.477Z,11.30
2023-11-23T20:01:34.446Z,11.30
2023-11-23T20:06:36.191Z,11.40
2023-11-23T20:11:38.034Z,11.40
2023-11-23T20:16:39.930Z,11.40
2023-11-23T20:21:41.623Z,11.30
2023-11-23T20:26:44.285Z,11.20
2023-11-23T20:31:46.851Z,11.10
2023-11-23T20:36:48.517Z,11.20
2023-11-23T20:41:53.980Z,11.20
2023-11-23T20:46:57.259Z,11.20
2023-11-23T20:51:59.195Z,11.30
2023-11-23T20:57:01.012Z,11.20
2023-11-23T21:02:03.994Z,11.30
2023-11-23T21:07:08.499Z,11.20
2023-11-23T21:12:15.010Z,11.20
2023-11-23T21:17:23.415Z,11.30
2023-11-23T21:22:25.405Z,11.30
2023-11-23T21:27:38.441Z,11.30
2023-11-23T21:32:40.604Z,11.40
2023-11-23T21:37:46.838Z,11.40
2023-11-23T21:42:48.453Z,11.40
2023-11-23T21:47:53.190Z,11.40
2023-11-23T21:52:55.403Z,11.40
2023-11-23T21:57:58.823Z,11.30
2023-11-23T22:03:03.477Z,11.30
2023-11-23T22:08:05.271Z,11.30
2023-11-23T22:13:07.039Z,11.30
2023-11-23T22:18:08.850Z,11.30
2023-11-23T22:23:10.705Z,11.40
2023-11-23T22:28:12.372Z,11.40
2023-11-23T22:33:14.208Z,11.40
2023-11-23T22:38:16.584Z,11.40
2023-11-23T22:43:18.283Z,11.40
2023-11-23T22:48:19.940Z,11.40
2023-11-23T22:53:21.615Z,11.40
2023-11-23T22:58:24.645Z,11.40
2023-11-23T23:03:26.381Z,11.50
2023-11-23T23:08:28.956Z,11.40
2023-11-23T23:13:30.706Z,11.40
2023-11-23T23:18:32.920Z,11.30
2023-11-23T23:23:34.591Z,11.30
2023-11-23T23:28:36.366Z,11.20
2023-11-23T23:33:38.212Z,11.10
2023-11-23T23:38:40.268Z,11.10
2023-11-23T23:43:42.724Z,11.30
2023-11-23T23:48:44.822Z,11.30
2023-11-23T23:53:46.607Z,11.30
2023-11-23T23:58:49.341Z,11.30
